sensor_id;sensor_type;location;lat;lon;timestamp;pressure;altitude;pressure_sealevel;temperature;humidity
29359;BME280;16347;53.232;6.556;2023-04-21T00:00:19;101850.13;;;13.43;58.60
29359;BME280;16347;53.232;6.556;2023-04-21T00:02:46;101843.72;;;13.52;59.14
29359;BME280;16347;53.232;6.556;2023-04-21T00:05:15;101837.59;;;13.40;58.71
29359;BME280;16347;53.232;6.556;2023-04-21T00:07:45;101845.88;;;13.30;59.04
29359;BME280;16347;53.232;6.556;2023-04-21T00:10:13;101838.22;;;13.34;59.00
29359;BME280;16347;53.232;6.556;2023-04-21T00:12:41;101839.78;;;13.36;59.10
29359;BME280;16347;53.232;6.556;2023-04-21T00:15:09;101838.94;;;13.36;59.20
29359;BME280;16347;53.232;6.556;2023-04-21T00:17:38;101846.16;;;13.27;59.28
29359;BME280;16347;53.232;6.556;2023-04-21T00:20:07;101841.97;;;13.33;58.79
29359;BME280;16347;53.232;6.556;2023-04-21T00:22:36;101836.22;;;13.36;59.06
29359;BME280;16347;53.232;6.556;2023-04-21T00:25:06;101832.31;;;13.39;58.78
29359;BME280;16347;53.232;6.556;2023-04-21T00:27:34;101835.03;;;13.39;58.71
29359;BME280;16347;53.232;6.556;2023-04-21T00:30:04;101833.94;;;13.31;58.52
29359;BME280;16347;53.232;6.556;2023-04-21T00:32:32;101820.97;;;13.33;58.72
29359;BME280;16347;53.232;6.556;2023-04-21T00:35:00;101815.50;;;13.33;58.74
29359;BME280;16347;53.232;6.556;2023-04-21T00:37:29;101813.81;;;13.32;58.31
29359;BME280;16347;53.232;6.556;2023-04-21T00:39:57;101808.31;;;13.15;58.57
29359;BME280;16347;53.232;6.556;2023-04-21T00:42:26;101798.81;;;13.19;58.65
29359;BME280;16347;53.232;6.556;2023-04-21T00:44:54;101804.72;;;13.14;58.76
29359;BME280;16347;53.232;6.556;2023-04-21T00:47:22;101800.81;;;13.17;58.87
29359;BME280;16347;53.232;6.556;2023-04-21T00:49:51;101798.69;;;13.11;58.56
29359;BME280;16347;53.232;6.556;2023-04-21T00:52:19;101799.56;;;13.02;58.45
29359;BME280;16347;53.232;6.556;2023-04-21T00:54:47;101797.09;;;13.08;58.66
29359;BME280;16347;53.232;6.556;2023-04-21T00:57:15;101793.78;;;13.14;59.07
29359;BME280;16347;53.232;6.556;2023-04-21T00:59:44;101796.13;;;13.09;58.99
29359;BME280;16347;53.232;6.556;2023-04-21T01:02:13;101797.81;;;13.10;58.42
29359;BME280;16347;53.232;6.556;2023-04-21T01:04:42;101792.53;;;13.09;58.73
29359;BME280;16347;53.232;6.556;2023-04-21T01:07:11;101791.34;;;13.11;58.09
29359;BME280;16347;53.232;6.556;2023-04-21T01:09:39;101789.50;;;13.02;58.55
29359;BME280;16347;53.232;6.556;2023-04-21T01:12:10;101791.53;;;13.00;58.39
29359;BME280;16347;53.232;6.556;2023-04-21T01:14:39;101790.66;;;13.00;58.98
29359;BME280;16347;53.232;6.556;2023-04-21T01:17:10;101790.81;;;12.98;58.77
29359;BME280;16347;53.232;6.556;2023-04-21T01:19:41;101787.13;;;12.90;58.76
29359;BME280;16347;53.232;6.556;2023-04-21T01:22:11;101787.47;;;13.04;58.87
29359;BME280;16347;53.232;6.556;2023-04-21T01:24:42;101786.47;;;13.05;58.68
29359;BME280;16347;53.232;6.556;2023-04-21T01:27:12;101784.34;;;13.09;58.39
29359;BME280;16347;53.232;6.556;2023-04-21T01:29:42;101784.75;;;13.04;58.38
29359;BME280;16347;53.232;6.556;2023-04-21T01:32:14;101782.47;;;13.09;58.49
29359;BME280;16347;53.232;6.556;2023-04-21T01:34:44;101780.28;;;13.13;58.59
29359;BME280;16347;53.232;6.556;2023-04-21T01:37:16;101766.47;;;13.14;58.71
29359;BME280;16347;53.232;6.556;2023-04-21T01:39:46;101765.47;;;13.15;58.29
29359;BME280;16347;53.232;6.556;2023-04-21T01:42:18;101757.66;;;13.20;58.09
29359;BME280;16347;53.232;6.556;2023-04-21T01:44:46;101764.59;;;13.15;57.75
29359;BME280;16347;53.232;6.556;2023-04-21T01:47:16;101759.19;;;13.05;58.00
29359;BME280;16347;53.232;6.556;2023-04-21T01:49:44;101758.59;;;13.11;58.25
29359;BME280;16347;53.232;6.556;2023-04-21T01:52:13;101752.97;;;13.13;58.04
29359;BME280;16347;53.232;6.556;2023-04-21T01:54:41;101755.88;;;13.11;57.96
29359;BME280;16347;53.232;6.556;2023-04-21T01:57:09;101750.13;;;13.05;57.55
29359;BME280;16347;53.232;6.556;2023-04-21T01:59:38;101762.28;;;12.93;58.37
29359;BME280;16347;53.232;6.556;2023-04-21T02:02:06;101755.78;;;12.94;58.31
29359;BME280;16347;53.232;6.556;2023-04-21T02:04:35;101750.53;;;12.82;58.33
29359;BME280;16347;53.232;6.556;2023-04-21T02:07:04;101750.00;;;12.79;58.23
29359;BME280;16347;53.232;6.556;2023-04-21T02:09:33;101749.13;;;12.78;58.74
29359;BME280;16347;53.232;6.556;2023-04-21T02:12:02;101754.56;;;12.78;58.77
29359;BME280;16347;53.232;6.556;2023-04-21T02:14:30;101750.63;;;12.63;58.76
29359;BME280;16347;53.232;6.556;2023-04-21T02:16:58;101751.72;;;12.70;58.63
29359;BME280;16347;53.232;6.556;2023-04-21T02:19:28;101759.97;;;12.61;58.79
29359;BME280;16347;53.232;6.556;2023-04-21T02:21:56;101748.63;;;12.65;59.13
29359;BME280;16347;53.232;6.556;2023-04-21T02:24:24;101744.25;;;12.45;59.46
29359;BME280;16347;53.232;6.556;2023-04-21T02:26:54;101749.97;;;12.52;59.08
29359;BME280;16347;53.232;6.556;2023-04-21T02:29:23;101744.19;;;12.55;59.25
29359;BME280;16347;53.232;6.556;2023-04-21T02:31:51;101741.91;;;12.50;58.96
29359;BME280;16347;53.232;6.556;2023-04-21T02:34:30;101742.47;;;12.54;58.92
29359;BME280;16347;53.232;6.556;2023-04-21T02:36:58;101746.47;;;12.59;59.11
29359;BME280;16347;53.232;6.556;2023-04-21T02:39:26;101746.50;;;12.50;59.26
29359;BME280;16347;53.232;6.556;2023-04-21T02:41:56;101748.53;;;12.48;59.23
29359;BME280;16347;53.232;6.556;2023-04-21T02:44:24;101737.66;;;12.38;58.96
29359;BME280;16347;53.232;6.556;2023-04-21T02:46:51;101742.81;;;12.41;59.20
29359;BME280;16347;53.232;6.556;2023-04-21T02:49:19;101743.69;;;12.42;59.61
29359;BME280;16347;53.232;6.556;2023-04-21T02:51:47;101736.09;;;12.26;59.48
29359;BME280;16347;53.232;6.556;2023-04-21T02:54:15;101738.09;;;12.33;59.89
29359;BME280;16347;53.232;6.556;2023-04-21T02:56:43;101743.41;;;12.35;59.90
29359;BME280;16347;53.232;6.556;2023-04-21T02:59:13;101741.25;;;12.29;59.57
29359;BME280;16347;53.232;6.556;2023-04-21T03:01:42;101737.78;;;12.37;59.39
29359;BME280;16347;53.232;6.556;2023-04-21T03:04:10;101731.63;;;12.34;59.36
29359;BME280;16347;53.232;6.556;2023-04-21T03:06:38;101728.63;;;12.38;59.27
29359;BME280;16347;53.232;6.556;2023-04-21T03:09:06;101734.63;;;12.41;59.62
29359;BME280;16347;53.232;6.556;2023-04-21T03:11:34;101735.19;;;12.45;59.15
29359;BME280;16347;53.232;6.556;2023-04-21T03:14:02;101732.63;;;12.33;59.57
29359;BME280;16347;53.232;6.556;2023-04-21T03:16:31;101733.50;;;12.34;59.55
29359;BME280;16347;53.232;6.556;2023-04-21T03:18:59;101731.81;;;12.23;59.47
29359;BME280;16347;53.232;6.556;2023-04-21T03:21:27;101729.25;;;12.22;59.66
29359;BME280;16347;53.232;6.556;2023-04-21T03:23:56;101730.09;;;12.22;59.88
29359;BME280;16347;53.232;6.556;2023-04-21T03:26:24;101739.13;;;12.23;59.78
29359;BME280;16347;53.232;6.556;2023-04-21T03:28:52;101732.94;;;12.30;59.63
29359;BME280;16347;53.232;6.556;2023-04-21T03:31:20;101734.97;;;12.28;59.64
29359;BME280;16347;53.232;6.556;2023-04-21T03:33:49;101734.66;;;12.31;59.75
29359;BME280;16347;53.232;6.556;2023-04-21T03:36:17;101739.81;;;12.34;59.94
29359;BME280;16347;53.232;6.556;2023-04-21T03:38:45;101745.19;;;12.07;60.39
29359;BME280;16347;53.232;6.556;2023-04-21T03:41:13;101739.41;;;12.20;59.85
29359;BME280;16347;53.232;6.556;2023-04-21T03:43:41;101740.38;;;12.38;59.90
29359;BME280;16347;53.232;6.556;2023-04-21T03:46:16;101734.63;;;12.41;59.77
29359;BME280;16347;53.232;6.556;2023-04-21T03:48:45;101730.91;;;12.42;59.45
29359;BME280;16347;53.232;6.556;2023-04-21T03:51:14;101735.63;;;12.40;59.76
29359;BME280;16347;53.232;6.556;2023-04-21T03:53:42;101733.06;;;12.39;59.69
29359;BME280;16347;53.232;6.556;2023-04-21T03:56:10;101722.16;;;12.39;59.07
29359;BME280;16347;53.232;6.556;2023-04-21T03:58:38;101715.22;;;12.44;59.64
29359;BME280;16347;53.232;6.556;2023-04-21T04:01:06;101716.13;;;12.35;59.42
29359;BME280;16347;53.232;6.556;2023-04-21T04:03:34;101713.69;;;12.42;59.91
29359;BME280;16347;53.232;6.556;2023-04-21T04:06:02;101715.78;;;12.48;59.24
29359;BME280;16347;53.232;6.556;2023-04-21T04:08:32;101716.69;;;12.39;59.67
29359;BME280;16347;53.232;6.556;2023-04-21T04:10:59;101720.25;;;12.39;59.53
29359;BME280;16347;53.232;6.556;2023-04-21T04:13:27;101715.53;;;12.41;59.60
29359;BME280;16347;53.232;6.556;2023-04-21T04:15:56;101713.97;;;12.29;60.15
29359;BME280;16347;53.232;6.556;2023-04-21T04:18:24;101718.56;;;12.38;60.19
29359;BME280;16347;53.232;6.556;2023-04-21T04:20:52;101702.03;;;12.40;59.55
29359;BME280;16347;53.232;6.556;2023-04-21T04:23:20;101709.66;;;12.36;59.65
29359;BME280;16347;53.232;6.556;2023-04-21T04:25:50;101705.06;;;12.37;59.80
29359;BME280;16347;53.232;6.556;2023-04-21T04:28:17;101700.91;;;12.32;59.78
29359;BME280;16347;53.232;6.556;2023-04-21T04:30:48;101704.56;;;12.14;59.75
29359;BME280;16347;53.232;6.556;2023-04-21T04:33:16;101703.84;;;12.21;60.48
29359;BME280;16347;53.232;6.556;2023-04-21T04:35:44;101706.56;;;12.21;60.72
29359;BME280;16347;53.232;6.556;2023-04-21T04:38:13;101707.00;;;12.17;60.57
29359;BME280;16347;53.232;6.556;2023-04-21T04:40:41;101706.75;;;12.10;60.46
29359;BME280;16347;53.232;6.556;2023-04-21T04:43:10;101708.56;;;12.19;60.69
29359;BME280;16347;53.232;6.556;2023-04-21T04:45:38;101704.66;;;12.31;60.18
29359;BME280;16347;53.232;6.556;2023-04-21T04:48:06;101711.72;;;12.24;60.02
29359;BME280;16347;53.232;6.556;2023-04-21T04:50:34;101703.53;;;12.24;60.05
29359;BME280;16347;53.232;6.556;2023-04-21T04:53:02;101716.88;;;12.27;60.29
29359;BME280;16347;53.232;6.556;2023-04-21T04:55:30;101716.56;;;12.30;60.03
29359;BME280;16347;53.232;6.556;2023-04-21T04:57:58;101719.00;;;12.33;59.81
29359;BME280;16347;53.232;6.556;2023-04-21T05:00:28;101722.16;;;12.39;60.30
29359;BME280;16347;53.232;6.556;2023-04-21T05:02:57;101721.44;;;12.37;59.58
29359;BME280;16347;53.232;6.556;2023-04-21T05:05:25;101718.41;;;12.40;60.17
29359;BME280;16347;53.232;6.556;2023-04-21T05:07:53;101716.97;;;12.35;59.93
29359;BME280;16347;53.232;6.556;2023-04-21T05:10:21;101715.72;;;12.30;60.22
29359;BME280;16347;53.232;6.556;2023-04-21T05:12:49;101715.06;;;12.18;60.08
29359;BME280;16347;53.232;6.556;2023-04-21T05:15:17;101714.59;;;12.23;60.43
29359;BME280;16347;53.232;6.556;2023-04-21T05:17:46;101713.63;;;12.14;60.26
29359;BME280;16347;53.232;6.556;2023-04-21T05:20:14;101715.16;;;12.26;60.36
29359;BME280;16347;53.232;6.556;2023-04-21T05:22:42;101721.06;;;12.22;60.31
29359;BME280;16347;53.232;6.556;2023-04-21T05:25:10;101723.63;;;12.23;60.27
29359;BME280;16347;53.232;6.556;2023-04-21T05:27:40;101727.53;;;12.21;60.58
29359;BME280;16347;53.232;6.556;2023-04-21T05:30:09;101733.75;;;12.41;60.46
29359;BME280;16347;53.232;6.556;2023-04-21T05:32:37;101724.28;;;12.45;60.22
29359;BME280;16347;53.232;6.556;2023-04-21T05:35:07;101727.88;;;12.45;59.79
29359;BME280;16347;53.232;6.556;2023-04-21T05:37:35;101724.72;;;12.40;59.56
29359;BME280;16347;53.232;6.556;2023-04-21T05:40:03;101730.22;;;12.30;59.96
29359;BME280;16347;53.232;6.556;2023-04-21T05:42:32;101729.59;;;12.37;59.95
29359;BME280;16347;53.232;6.556;2023-04-21T05:45:00;101725.88;;;12.38;59.99
29359;BME280;16347;53.232;6.556;2023-04-21T05:47:28;101732.84;;;12.50;59.85
29359;BME280;16347;53.232;6.556;2023-04-21T05:49:56;101739.63;;;12.46;59.91
29359;BME280;16347;53.232;6.556;2023-04-21T05:52:25;101737.06;;;12.44;59.71
29359;BME280;16347;53.232;6.556;2023-04-21T05:54:53;101733.47;;;12.44;59.48
29359;BME280;16347;53.232;6.556;2023-04-21T05:57:21;101727.00;;;12.45;59.87
29359;BME280;16347;53.232;6.556;2023-04-21T05:59:49;101727.03;;;12.35;59.92
29359;BME280;16347;53.232;6.556;2023-04-21T06:02:17;101737.63;;;12.48;60.47
29359;BME280;16347;53.232;6.556;2023-04-21T06:04:45;101731.44;;;12.46;60.19
29359;BME280;16347;53.232;6.556;2023-04-21T06:07:13;101728.13;;;12.52;60.23
29359;BME280;16347;53.232;6.556;2023-04-21T06:09:48;101725.78;;;12.57;60.13
29359;BME280;16347;53.232;6.556;2023-04-21T06:12:16;101719.47;;;12.56;60.06
29359;BME280;16347;53.232;6.556;2023-04-21T06:14:44;101715.06;;;12.55;60.26
29359;BME280;16347;53.232;6.556;2023-04-21T06:17:15;101728.38;;;12.58;60.59
29359;BME280;16347;53.232;6.556;2023-04-21T06:19:45;101718.13;;;12.70;60.22
29359;BME280;16347;53.232;6.556;2023-04-21T06:22:19;101714.78;;;12.76;59.94
29359;BME280;16347;53.232;6.556;2023-04-21T06:24:49;101708.06;;;12.70;59.82
29359;BME280;16347;53.232;6.556;2023-04-21T06:27:18;101709.38;;;12.66;59.95
29359;BME280;16347;53.232;6.556;2023-04-21T06:29:46;101709.63;;;12.73;60.16
29359;BME280;16347;53.232;6.556;2023-04-21T06:32:14;101719.97;;;12.79;59.86
29359;BME280;16347;53.232;6.556;2023-04-21T06:34:42;101721.41;;;12.73;60.08
29359;BME280;16347;53.232;6.556;2023-04-21T06:37:10;101723.53;;;12.79;60.23
29359;BME280;16347;53.232;6.556;2023-04-21T06:39:38;101719.09;;;12.78;60.15
29359;BME280;16347;53.232;6.556;2023-04-21T06:42:07;101715.25;;;12.71;60.23
29359;BME280;16347;53.232;6.556;2023-04-21T06:44:41;101712.16;;;12.84;60.47
29359;BME280;16347;53.232;6.556;2023-04-21T06:47:09;101706.00;;;12.82;60.53
29359;BME280;16347;53.232;6.556;2023-04-21T06:49:37;101711.25;;;12.93;60.01
29359;BME280;16347;53.232;6.556;2023-04-21T06:52:05;101709.31;;;13.03;59.97
29359;BME280;16347;53.232;6.556;2023-04-21T06:54:33;101706.84;;;13.10;59.79
29359;BME280;16347;53.232;6.556;2023-04-21T06:57:01;101703.22;;;13.19;59.67
29359;BME280;16347;53.232;6.556;2023-04-21T06:59:30;101706.81;;;13.19;59.96
29359;BME280;16347;53.232;6.556;2023-04-21T07:01:58;101718.44;;;13.21;59.48
29359;BME280;16347;53.232;6.556;2023-04-21T07:04:27;101710.53;;;13.18;59.94
29359;BME280;16347;53.232;6.556;2023-04-21T07:06:57;101700.31;;;13.20;59.38
29359;BME280;16347;53.232;6.556;2023-04-21T07:09:28;101685.72;;;13.12;59.89
29359;BME280;16347;53.232;6.556;2023-04-21T07:11:59;101696.03;;;13.18;59.94
29359;BME280;16347;53.232;6.556;2023-04-21T07:14:28;101704.47;;;13.24;59.83
29359;BME280;16347;53.232;6.556;2023-04-21T07:16:57;101709.16;;;13.32;59.87
29359;BME280;16347;53.232;6.556;2023-04-21T07:19:25;101707.28;;;13.32;59.87
29359;BME280;16347;53.232;6.556;2023-04-21T07:21:53;101700.19;;;13.40;59.86
29359;BME280;16347;53.232;6.556;2023-04-21T07:24:22;101705.25;;;13.52;59.73
29359;BME280;16347;53.232;6.556;2023-04-21T07:26:50;101703.69;;;13.50;59.98
29359;BME280;16347;53.232;6.556;2023-04-21T07:29:17;101696.88;;;13.54;59.63
29359;BME280;16347;53.232;6.556;2023-04-21T07:31:46;101692.28;;;13.54;59.60
29359;BME280;16347;53.232;6.556;2023-04-21T07:34:15;101696.56;;;13.57;59.81
29359;BME280;16347;53.232;6.556;2023-04-21T07:36:43;101696.66;;;13.65;59.62
29359;BME280;16347;53.232;6.556;2023-04-21T07:39:11;101711.72;;;13.69;59.56
29359;BME280;16347;53.232;6.556;2023-04-21T07:41:40;101707.94;;;13.70;59.69
29359;BME280;16347;53.232;6.556;2023-04-21T07:44:08;101703.56;;;13.77;60.14
29359;BME280;16347;53.232;6.556;2023-04-21T07:46:36;101705.84;;;13.81;59.72
29359;BME280;16347;53.232;6.556;2023-04-21T07:49:04;101715.44;;;13.85;59.65
29359;BME280;16347;53.232;6.556;2023-04-21T07:51:34;101705.91;;;13.90;59.55
29359;BME280;16347;53.232;6.556;2023-04-21T07:54:02;101698.94;;;13.95;59.61
29359;BME280;16347;53.232;6.556;2023-04-21T07:56:30;101700.69;;;14.04;59.49
29359;BME280;16347;53.232;6.556;2023-04-21T07:58:58;101692.03;;;14.09;59.19
29359;BME280;16347;53.232;6.556;2023-04-21T08:01:26;101691.16;;;14.08;58.94
29359;BME280;16347;53.232;6.556;2023-04-21T08:03:54;101693.25;;;14.14;59.35
29359;BME280;16347;53.232;6.556;2023-04-21T08:06:22;101695.03;;;14.23;59.32
29359;BME280;16347;53.232;6.556;2023-04-21T08:08:52;101683.59;;;14.28;59.16
29359;BME280;16347;53.232;6.556;2023-04-21T08:11:21;101691.97;;;14.26;59.14
29359;BME280;16347;53.232;6.556;2023-04-21T08:13:49;101682.47;;;14.38;58.87
29359;BME280;16347;53.232;6.556;2023-04-21T08:16:17;101676.00;;;14.40;59.09
29359;BME280;16347;53.232;6.556;2023-04-21T08:18:45;101679.94;;;14.45;59.11
29359;BME280;16347;53.232;6.556;2023-04-21T08:21:13;101674.47;;;14.45;59.41
29359;BME280;16347;53.232;6.556;2023-04-21T08:23:41;101673.88;;;14.59;58.98
29359;BME280;16347;53.232;6.556;2023-04-21T08:26:10;101671.06;;;14.51;58.97
29359;BME280;16347;53.232;6.556;2023-04-21T08:28:39;101662.25;;;14.65;58.79
29359;BME280;16347;53.232;6.556;2023-04-21T08:31:06;101665.84;;;14.66;58.58
29359;BME280;16347;53.232;6.556;2023-04-21T08:33:34;101671.66;;;14.71;58.76
29359;BME280;16347;53.232;6.556;2023-04-21T08:36:15;101674.78;;;14.76;58.68
29359;BME280;16347;53.232;6.556;2023-04-21T08:38:54;101672.75;;;14.86;58.66
29359;BME280;16347;53.232;6.556;2023-04-21T08:41:25;101673.81;;;14.93;58.51
29359;BME280;16347;53.232;6.556;2023-04-21T08:43:53;101665.25;;;14.96;57.96
29359;BME280;16347;53.232;6.556;2023-04-21T08:46:22;101661.84;;;15.02;57.79
29359;BME280;16347;53.232;6.556;2023-04-21T08:48:51;101668.22;;;15.11;57.87
29359;BME280;16347;53.232;6.556;2023-04-21T08:51:22;101666.50;;;15.18;57.18
29359;BME280;16347;53.232;6.556;2023-04-21T08:53:50;101663.06;;;15.16;57.39
29359;BME280;16347;53.232;6.556;2023-04-21T08:56:18;101652.81;;;15.26;57.31
29359;BME280;16347;53.232;6.556;2023-04-21T08:58:47;101656.94;;;15.30;57.14
29359;BME280;16347;53.232;6.556;2023-04-21T09:01:15;101656.41;;;15.34;56.85
29359;BME280;16347;53.232;6.556;2023-04-21T09:03:43;101650.09;;;15.42;56.33
29359;BME280;16347;53.232;6.556;2023-04-21T09:06:11;101643.41;;;15.45;56.56
29359;BME280;16347;53.232;6.556;2023-04-21T09:08:41;101648.25;;;15.51;57.13
29359;BME280;16347;53.232;6.556;2023-04-21T09:11:13;101647.72;;;15.63;56.84
29359;BME280;16347;53.232;6.556;2023-04-21T09:13:42;101637.78;;;15.70;56.53
29359;BME280;16347;53.232;6.556;2023-04-21T09:16:19;101640.53;;;15.70;56.99
29359;BME280;16347;53.232;6.556;2023-04-21T09:18:48;101630.59;;;15.77;55.94
29359;BME280;16347;53.232;6.556;2023-04-21T09:21:18;101637.91;;;15.93;55.53
29359;BME280;16347;53.232;6.556;2023-04-21T09:23:48;101639.97;;;15.99;55.82
29359;BME280;16347;53.232;6.556;2023-04-21T09:26:17;101630.69;;;16.08;55.86
29359;BME280;16347;53.232;6.556;2023-04-21T09:28:47;101632.69;;;16.22;55.56
29359;BME280;16347;53.232;6.556;2023-04-21T09:31:18;101628.56;;;16.26;55.51
29359;BME280;16347;53.232;6.556;2023-04-21T09:33:47;101627.00;;;16.32;54.45
29359;BME280;16347;53.232;6.556;2023-04-21T09:36:19;101628.84;;;16.39;54.70
29359;BME280;16347;53.232;6.556;2023-04-21T09:38:57;101621.75;;;16.53;54.52
29359;BME280;16347;53.232;6.556;2023-04-21T09:41:30;101624.22;;;16.40;54.57
29359;BME280;16347;53.232;6.556;2023-04-21T09:43:58;101625.91;;;16.57;54.77
29359;BME280;16347;53.232;6.556;2023-04-21T09:46:31;101624.16;;;16.64;54.29
29359;BME280;16347;53.232;6.556;2023-04-21T09:49:00;101613.47;;;16.69;54.19
29359;BME280;16347;53.232;6.556;2023-04-21T09:51:30;101614.47;;;16.76;54.18
29359;BME280;16347;53.232;6.556;2023-04-21T09:54:19;101609.94;;;16.91;54.25
29359;BME280;16347;53.232;6.556;2023-04-21T09:56:58;101611.09;;;16.97;52.94
29359;BME280;16347;53.232;6.556;2023-04-21T09:59:29;101609.81;;;17.08;52.92
29359;BME280;16347;53.232;6.556;2023-04-21T10:02:04;101608.91;;;17.15;52.06
29359;BME280;16347;53.232;6.556;2023-04-21T10:04:34;101598.56;;;17.17;52.03
29359;BME280;16347;53.232;6.556;2023-04-21T10:07:04;101605.41;;;17.21;51.18
29359;BME280;16347;53.232;6.556;2023-04-21T10:09:37;101605.91;;;17.25;50.16
29359;BME280;16347;53.232;6.556;2023-04-21T10:12:10;101601.88;;;17.35;51.21
29359;BME280;16347;53.232;6.556;2023-04-21T10:14:40;101593.16;;;17.47;51.73
29359;BME280;16347;53.232;6.556;2023-04-21T10:17:09;101589.38;;;17.48;51.57
29359;BME280;16347;53.232;6.556;2023-04-21T10:19:47;101587.53;;;17.63;49.73
29359;BME280;16347;53.232;6.556;2023-04-21T10:22:25;101585.75;;;17.70;49.80
29359;BME280;16347;53.232;6.556;2023-04-21T10:24:55;101580.38;;;17.76;49.65
29359;BME280;16347;53.232;6.556;2023-04-21T10:27:31;101573.44;;;17.80;49.66
29359;BME280;16347;53.232;6.556;2023-04-21T10:30:00;101561.19;;;17.83;49.48
29359;BME280;16347;53.232;6.556;2023-04-21T10:32:39;101560.56;;;17.96;48.94
29359;BME280;16347;53.232;6.556;2023-04-21T10:35:09;101553.53;;;17.93;48.40
29359;BME280;16347;53.232;6.556;2023-04-21T10:37:39;101552.78;;;17.99;48.07
29359;BME280;16347;53.232;6.556;2023-04-21T10:40:32;101542.16;;;18.11;48.67
29359;BME280;16347;53.232;6.556;2023-04-21T10:43:43;101535.69;;;18.18;48.00
29359;BME280;16347;53.232;6.556;2023-04-21T10:46:33;101534.06;;;18.24;47.79
29359;BME280;16347;53.232;6.556;2023-04-21T10:49:06;101527.91;;;18.22;47.33
29359;BME280;16347;53.232;6.556;2023-04-21T10:54:23;101519.41;;;18.38;48.56
29359;BME280;16347;53.232;6.556;2023-04-21T10:56:53;101516.94;;;18.43;48.68
29359;BME280;16347;53.232;6.556;2023-04-21T10:59:22;101510.66;;;18.49;48.09
29359;BME280;16347;53.232;6.556;2023-04-21T11:01:50;101505.72;;;18.59;48.29
29359;BME280;16347;53.232;6.556;2023-04-21T11:04:21;101503.56;;;18.76;46.46
29359;BME280;16347;53.232;6.556;2023-04-21T11:07:04;101505.44;;;18.90;46.58
29359;BME280;16347;53.232;6.556;2023-04-21T11:09:33;101500.28;;;18.87;45.24
29359;BME280;16347;53.232;6.556;2023-04-21T11:12:03;101496.75;;;18.93;44.12
29359;BME280;16347;53.232;6.556;2023-04-21T11:14:34;101491.03;;;18.94;43.51
29359;BME280;16347;53.232;6.556;2023-04-21T11:17:03;101496.03;;;19.06;43.39
29359;BME280;16347;53.232;6.556;2023-04-21T11:19:32;101490.69;;;19.04;43.51
29359;BME280;16347;53.232;6.556;2023-04-21T11:22:00;101472.47;;;19.03;43.41
29359;BME280;16347;53.232;6.556;2023-04-21T11:24:29;101471.50;;;19.17;43.19
29359;BME280;16347;53.232;6.556;2023-04-21T11:26:57;101458.97;;;19.15;42.39
29359;BME280;16347;53.232;6.556;2023-04-21T11:29:28;101457.94;;;19.16;42.08
29359;BME280;16347;53.232;6.556;2023-04-21T11:31:57;101441.69;;;19.27;42.87
29359;BME280;16347;53.232;6.556;2023-04-21T11:34:25;101461.97;;;19.41;43.32
29359;BME280;16347;53.232;6.556;2023-04-21T11:36:54;101441.03;;;19.47;42.48
29359;BME280;16347;53.232;6.556;2023-04-21T11:39:23;101438.84;;;19.42;40.95
29359;BME280;16347;53.232;6.556;2023-04-21T11:41:51;101440.75;;;19.41;41.80
29359;BME280;16347;53.232;6.556;2023-04-21T11:44:32;101425.19;;;19.62;41.57
29359;BME280;16347;53.232;6.556;2023-04-21T11:47:11;101433.72;;;19.67;41.96
29359;BME280;16347;53.232;6.556;2023-04-21T11:49:44;101438.97;;;19.62;42.29
29359;BME280;16347;53.232;6.556;2023-04-21T11:52:25;101439.06;;;19.81;41.65
29359;BME280;16347;53.232;6.556;2023-04-21T11:54:56;101432.53;;;19.89;42.65
29359;BME280;16347;53.232;6.556;2023-04-21T11:57:25;101437.44;;;19.87;40.40
29359;BME280;16347;53.232;6.556;2023-04-21T11:59:57;101418.56;;;19.90;40.29
29359;BME280;16347;53.232;6.556;2023-04-21T12:02:27;101411.47;;;19.81;39.95
29359;BME280;16347;53.232;6.556;2023-04-21T12:04:57;101422.03;;;19.71;39.66
29359;BME280;16347;53.232;6.556;2023-04-21T12:07:28;101414.06;;;19.83;40.66
29359;BME280;16347;53.232;6.556;2023-04-21T12:09:57;101411.16;;;19.98;39.52
29359;BME280;16347;53.232;6.556;2023-04-21T12:13:09;101395.69;;;20.16;40.62
29359;BME280;16347;53.232;6.556;2023-04-21T12:15:38;101397.66;;;20.29;40.69
29359;BME280;16347;53.232;6.556;2023-04-21T12:18:11;101399.38;;;20.36;40.79
29359;BME280;16347;53.232;6.556;2023-04-21T12:20:48;101389.41;;;20.48;40.51
29359;BME280;16347;53.232;6.556;2023-04-21T12:23:18;101388.16;;;20.51;40.11
29359;BME280;16347;53.232;6.556;2023-04-21T12:25:47;101391.75;;;20.52;40.43
29359;BME280;16347;53.232;6.556;2023-04-21T12:28:15;101383.28;;;20.53;40.22
29359;BME280;16347;53.232;6.556;2023-04-21T12:30:43;101388.38;;;20.50;39.56
29359;BME280;16347;53.232;6.556;2023-04-21T12:33:36;101393.47;;;20.53;39.61
29359;BME280;16347;53.232;6.556;2023-04-21T12:36:04;101387.31;;;20.44;39.55
29359;BME280;16347;53.232;6.556;2023-04-21T12:38:34;101387.06;;;20.32;39.65
29359;BME280;16347;53.232;6.556;2023-04-21T12:41:02;101380.47;;;20.27;40.00
29359;BME280;16347;53.232;6.556;2023-04-21T12:43:31;101385.94;;;20.20;39.42
29359;BME280;16347;53.232;6.556;2023-04-21T12:45:59;101384.41;;;20.11;39.34
29359;BME280;16347;53.232;6.556;2023-04-21T12:48:28;101386.81;;;20.21;40.50
29359;BME280;16347;53.232;6.556;2023-04-21T12:50:56;101377.72;;;20.33;38.27
29359;BME280;16347;53.232;6.556;2023-04-21T12:53:24;101373.25;;;20.45;40.34
29359;BME280;16347;53.232;6.556;2023-04-21T12:55:57;101367.34;;;20.68;39.64
29359;BME280;16347;53.232;6.556;2023-04-21T12:58:30;101362.03;;;20.80;39.87
29359;BME280;16347;53.232;6.556;2023-04-21T13:00:58;101353.72;;;20.80;38.14
29359;BME280;16347;53.232;6.556;2023-04-21T13:03:26;101353.09;;;20.91;39.32
29359;BME280;16347;53.232;6.556;2023-04-21T13:05:54;101342.22;;;21.09;39.07